createdAt,value
2019-03-05T00:01:02.750Z,3.32
2019-03-05T00:03:32.480Z,3.33
2019-03-05T00:06:02.101Z,3.37
2019-03-05T00:08:31.834Z,3.42
2019-03-05T00:11:01.557Z,3.46
2019-03-05T00:13:31.294Z,3.51
2019-03-05T00:16:00.920Z,3.50
2019-03-05T00:18:30.703Z,3.52
2019-03-05T00:21:00.289Z,3.53
2019-03-05T00:23:47.509Z,3.56
2019-03-05T00:26:29.302Z,3.61
2019-03-05T00:29:07.924Z,3.65
2019-03-05T00:31:45.739Z,3.66
2019-03-05T00:34:27.433Z,3.72
2019-03-05T00:37:09.339Z,3.80
2019-03-05T00:39:44.786Z,3.86
2019-03-05T00:42:49.548Z,3.89
2019-03-05T00:45:41.946Z,3.97
2019-03-05T00:48:39.073Z,3.99
2019-03-05T00:51:25.060Z,4.05
2019-03-05T00:54:13.403Z,4.10
2019-03-05T00:56:46.315Z,4.17
2019-03-05T00:59:37.620Z,4.19
2019-03-05T01:02:28.352Z,4.22
2019-03-05T01:05:06.945Z,4.26
2019-03-05T01:07:36.682Z,4.32
2019-03-05T01:10:07.600Z,4.35
2019-03-05T01:12:37.268Z,4.35
2019-03-05T01:15:08.679Z,4.40
2019-03-05T01:17:39.994Z,4.43
2019-03-05T01:20:12.189Z,4.42
2019-03-05T01:22:41.909Z,4.47
2019-03-05T01:25:29.688Z,4.47
2019-03-05T01:27:59.374Z,4.50
2019-03-05T01:30:54.262Z,4.51
2019-03-05T01:33:25.515Z,4.53
2019-03-05T01:35:59.478Z,4.55
2019-03-05T01:38:30.910Z,4.56
2019-03-05T01:41:02.186Z,4.59
2019-03-05T01:43:31.911Z,4.61
2019-03-05T01:46:01.535Z,4.61
2019-03-05T01:48:31.277Z,4.58
2019-03-05T01:51:01.102Z,4.60
2019-03-05T01:53:30.828Z,4.60
2019-03-05T01:56:00.463Z,4.59
2019-03-05T01:58:30.190Z,4.61
2019-03-05T02:00:59.914Z,4.62
2019-03-05T02:03:29.644Z,4.60
2019-03-05T02:05:59.273Z,4.61
2019-03-05T02:08:28.899Z,4.63
2019-03-05T02:10:58.639Z,4.66
2019-03-05T02:13:28.391Z,4.65
2019-03-05T02:15:58.098Z,4.61
2019-03-05T02:18:27.917Z,4.63
2019-03-05T02:20:57.761Z,4.63
2019-03-05T02:23:43.956Z,4.62
2019-03-05T02:26:25.750Z,4.63
2019-03-05T02:29:10.719Z,4.61
2019-03-05T02:31:53.331Z,4.60
2019-03-05T02:34:29.110Z,4.58
2019-03-05T02:37:04.973Z,4.61
2019-03-05T02:39:43.700Z,4.61
2019-03-05T02:42:25.600Z,4.62
2019-03-05T02:45:31.899Z,4.59
2019-03-05T02:48:07.600Z,4.59
2019-03-05T02:50:55.396Z,4.58
2019-03-05T02:53:34.272Z,4.55
2019-03-05T02:56:16.218Z,4.49
2019-03-05T02:58:44.998Z,4.50
2019-03-05T03:01:22.274Z,4.50
2019-03-05T03:03:53.550Z,4.49
2019-03-05T03:06:24.705Z,4.52
2019-03-05T03:09:03.489Z,4.53
2019-03-05T03:11:34.696Z,4.45
2019-03-05T03:14:04.333Z,4.44
2019-03-05T03:16:34.071Z,4.40
2019-03-05T03:19:03.794Z,4.39
2019-03-05T03:21:33.590Z,4.36
2019-03-05T03:24:03.248Z,4.35
2019-03-05T03:26:32.874Z,4.37
2019-03-05T03:29:02.509Z,4.31
2019-03-05T03:31:32.246Z,4.31
2019-03-05T03:34:01.861Z,4.29
2019-03-05T03:36:32.506Z,4.26
2019-03-05T03:39:02.238Z,4.20
2019-03-05T03:41:33.440Z,4.15
2019-03-05T03:44:04.582Z,4.08
2019-03-05T03:46:34.294Z,4.10
2019-03-05T03:49:04.018Z,4.07
2019-03-05T03:51:33.758Z,4.07
2019-03-05T03:54:03.392Z,4.00
2019-03-05T03:56:33.031Z,3.95
2019-03-05T03:59:02.762Z,3.99
2019-03-05T04:01:32.510Z,3.97
2019-03-05T04:04:02.059Z,3.95
2019-03-05T04:06:31.834Z,3.96
2019-03-05T04:09:01.489Z,3.94
2019-03-05T04:11:32.724Z,3.94
2019-03-05T04:14:02.571Z,3.93
2019-03-05T04:16:32.284Z,3.86
2019-03-05T04:19:03.656Z,3.87
2019-03-05T04:21:33.187Z,3.83
2019-03-05T04:24:02.910Z,3.81
2019-03-05T04:26:32.747Z,3.77
2019-03-05T04:29:02.489Z,3.68
2019-03-05T04:31:33.438Z,3.64
2019-03-05T04:34:03.269Z,3.60
2019-03-05T04:36:33.098Z,3.56
2019-03-05T04:39:02.823Z,3.54
2019-03-05T04:41:34.093Z,3.53
2019-03-05T04:44:04.934Z,3.53
2019-03-05T04:46:35.294Z,3.52
2019-03-05T04:49:13.717Z,3.57
2019-03-05T04:51:45.076Z,3.65
2019-03-05T04:54:14.804Z,3.75
2019-03-05T04:56:44.637Z,3.79
2019-03-05T04:59:14.366Z,3.78
2019-03-05T05:01:43.990Z,3.80
2019-03-05T05:04:13.625Z,3.75
2019-03-05T05:06:43.246Z,3.74
2019-03-05T05:09:13.086Z,3.72
2019-03-05T05:11:42.834Z,3.70
2019-03-05T05:14:14.084Z,3.69
2019-03-05T05:16:43.708Z,3.75
2019-03-05T05:19:13.747Z,3.85
2019-03-05T05:21:43.507Z,3.93
2019-03-05T05:24:13.352Z,3.98
2019-03-05T05:26:43.342Z,4.08
2019-03-05T05:29:13.072Z,4.22
2019-03-05T05:31:42.810Z,4.24
2019-03-05T05:34:12.737Z,4.30
2019-03-05T05:36:42.478Z,4.30
2019-03-05T05:39:48.566Z,4.21
2019-03-05T05:42:18.339Z,4.71
2019-03-05T05:44:48.068Z,5.61
2019-03-05T05:47:17.591Z,5.88
2019-03-05T05:49:47.219Z,5.07
2019-03-05T05:52:16.961Z,4.90
2019-03-05T05:54:51.432Z,5.64
2019-03-05T05:57:26.298Z,5.95
2019-03-05T06:00:03.870Z,6.15
2019-03-05T06:02:36.845Z,6.66
2019-03-05T06:05:08.634Z,7.38
2019-03-05T06:07:39.482Z,6.98
2019-03-05T06:10:15.703Z,7.08
2019-03-05T06:12:45.472Z,7.50
2019-03-05T06:15:18.231Z,8.11
2019-03-05T06:17:50.979Z,8.89
2019-03-05T06:20:21.448Z,8.71
2019-03-05T06:22:54.247Z,8.82
2019-03-05T06:25:28.794Z,9.48
2019-03-05T06:27:58.995Z,9.37
2019-03-05T06:30:36.010Z,9.72
2019-03-05T06:33:09.736Z,10.42
2019-03-05T06:35:41.407Z,9.73
2019-03-05T06:38:12.227Z,9.09
2019-03-05T06:40:42.006Z,8.03
2019-03-05T06:43:11.612Z,8.77
2019-03-05T06:45:42.643Z,8.86
2019-03-05T06:48:12.481Z,8.20
2019-03-05T06:50:42.105Z,8.17
2019-03-05T06:53:12.246Z,8.78
2019-03-05T06:55:41.975Z,8.32
2019-03-05T06:58:12.052Z,8.57
2019-03-05T07:00:42.359Z,7.87
2019-03-05T07:03:12.086Z,8.29
2019-03-05T07:06:18.708Z,9.06
2019-03-05T07:09:00.232Z,9.36
2019-03-05T07:11:58.912Z,10.27
2019-03-05T07:14:57.787Z,10.43
2019-03-05T07:17:33.270Z,9.84
2019-03-05T07:20:10.234Z,10.39
2019-03-05T07:22:53.152Z,11.12
2019-03-05T07:25:22.884Z,11.28
2019-03-05T07:27:52.613Z,10.98
2019-03-05T07:30:22.147Z,10.87
2019-03-05T07:32:51.875Z,10.20
2019-03-05T07:35:22.315Z,10.49
2019-03-05T07:37:52.046Z,10.77
2019-03-05T07:40:21.680Z,10.97
2019-03-05T07:42:51.414Z,11.35
2019-03-05T07:45:21.134Z,11.22
2019-03-05T07:47:51.889Z,11.44
2019-03-05T07:50:21.516Z,10.79
2019-03-05T07:52:51.043Z,9.98
2019-03-05T07:55:20.772Z,9.70
2019-03-05T07:57:51.533Z,9.45
2019-03-05T08:00:21.164Z,9.44
2019-03-05T08:02:50.880Z,9.64
2019-03-05T08:05:20.725Z,9.56
2019-03-05T08:07:50.450Z,9.48
2019-03-05T08:10:26.061Z,9.69
2019-03-05T08:13:05.569Z,9.52
2019-03-05T08:16:08.119Z,9.57
2019-03-05T08:18:39.385Z,9.47
2019-03-05T08:21:09.309Z,9.54
2019-03-05T08:23:38.789Z,9.69
2019-03-05T08:26:08.340Z,9.67
2019-03-05T08:28:38.180Z,9.84
2019-03-05T08:31:07.822Z,10.05
2019-03-05T08:33:37.533Z,9.86
2019-03-05T08:36:10.044Z,10.29
2019-03-05T08:38:39.774Z,10.62
2019-03-05T08:41:09.264Z,11.18
2019-03-05T08:43:39.339Z,12.14
2019-03-05T08:46:09.067Z,12.02
2019-03-05T08:48:38.904Z,11.54
2019-03-05T08:51:10.165Z,11.88
2019-03-05T08:53:49.236Z,11.87
2019-03-05T08:56:11.364Z,12.93
2019-03-05T08:58:41.092Z,12.97
2019-03-05T09:01:10.819Z,12.82
2019-03-05T09:03:40.559Z,13.45
2019-03-05T09:06:10.389Z,14.25
2019-03-05T09:08:40.013Z,13.80
2019-03-05T09:11:09.846Z,13.63
2019-03-05T09:13:39.677Z,13.34
2019-03-05T09:16:09.515Z,13.64
2019-03-05T09:18:39.157Z,14.25
2019-03-05T09:21:08.801Z,13.61
2019-03-05T09:23:39.039Z,12.89
2019-03-05T09:26:08.642Z,12.41
2019-03-05T09:28:38.374Z,13.76
2019-03-05T09:31:08.103Z,13.76
2019-03-05T09:33:37.832Z,14.23
2019-03-05T09:36:07.582Z,14.56
2019-03-05T09:38:38.413Z,13.48
2019-03-05T09:41:08.061Z,13.45
2019-03-05T09:43:37.619Z,13.13
2019-03-05T09:46:07.500Z,13.06
2019-03-05T09:48:37.137Z,12.70
2019-03-05T09:51:06.873Z,13.28
2019-03-05T09:53:36.687Z,13.22
2019-03-05T09:56:06.422Z,12.77
2019-03-05T09:58:37.179Z,12.13
2019-03-05T10:01:07.109Z,11.97
2019-03-05T10:03:36.738Z,12.63
2019-03-05T10:06:06.463Z,14.13
2019-03-05T10:08:36.097Z,14.61
2019-03-05T10:11:05.828Z,15.10
2019-03-05T10:13:35.599Z,15.91
2019-03-05T10:16:05.289Z,16.00
2019-03-05T10:18:35.124Z,15.64
2019-03-05T10:21:05.570Z,16.83
2019-03-05T10:23:36.016Z,16.34
2019-03-05T10:26:05.594Z,15.94
2019-03-05T10:28:35.370Z,15.13
2019-03-05T10:31:05.109Z,14.58
2019-03-05T10:33:35.236Z,15.36
2019-03-05T10:36:05.379Z,15.87
2019-03-05T10:38:35.109Z,15.16
2019-03-05T10:41:04.848Z,13.83
2019-03-05T10:43:34.568Z,13.72
2019-03-05T10:46:04.257Z,14.35
2019-03-05T10:48:34.032Z,14.32
2019-03-05T10:51:04.480Z,13.72
2019-03-05T10:53:34.105Z,13.88
2019-03-05T10:56:03.878Z,13.73
2019-03-05T10:58:34.541Z,13.74
2019-03-05T11:01:06.670Z,13.71
2019-03-05T11:03:36.400Z,13.81
2019-03-05T11:06:06.637Z,13.99
2019-03-05T11:08:36.262Z,14.07
2019-03-05T11:11:13.637Z,13.83
2019-03-05T11:13:37.362Z,13.48
2019-03-05T11:16:07.098Z,13.69
2019-03-05T11:18:36.823Z,13.64
2019-03-05T11:21:06.867Z,13.39
2019-03-05T11:23:36.589Z,13.29
2019-03-05T11:26:06.226Z,13.24
2019-03-05T11:28:35.946Z,13.12
2019-03-05T11:31:07.219Z,13.01
2019-03-05T11:33:36.840Z,12.99
2019-03-05T11:36:06.678Z,12.96
2019-03-05T11:38:36.514Z,12.83
2019-03-05T11:41:06.350Z,12.91
2019-03-05T11:43:37.135Z,13.00
2019-03-05T11:46:10.735Z,13.35
2019-03-05T11:48:40.646Z,13.53
2019-03-05T11:51:10.393Z,13.61
2019-03-05T11:53:40.006Z,13.87
2019-03-05T11:56:12.616Z,13.96
2019-03-05T11:58:44.470Z,14.40
2019-03-05T12:01:20.395Z,14.10
2019-03-05T12:03:54.229Z,13.92
2019-03-05T12:06:26.010Z,13.95
2019-03-05T12:08:55.673Z,13.93
2019-03-05T12:11:25.511Z,13.80
2019-03-05T12:13:55.134Z,14.23
2019-03-05T12:16:26.186Z,14.15
2019-03-05T12:18:55.974Z,14.12
2019-03-05T12:21:29.636Z,14.56
2019-03-05T12:24:00.036Z,15.50
2019-03-05T12:26:31.938Z,16.47
2019-03-05T12:29:05.383Z,16.18
2019-03-05T12:31:37.620Z,16.23
2019-03-05T12:34:09.818Z,15.18
2019-03-05T12:36:40.186Z,14.15
2019-03-05T12:39:10.939Z,13.96
2019-03-05T12:41:40.876Z,13.87
2019-03-05T12:44:10.510Z,13.94
2019-03-05T12:46:40.246Z,13.91
2019-03-05T12:49:10.181Z,13.84
2019-03-05T12:51:39.793Z,13.64
2019-03-05T12:54:11.521Z,13.46
2019-03-05T12:56:41.670Z,13.35
2019-03-05T12:59:11.573Z,13.29
2019-03-05T13:01:44.201Z,13.31
2019-03-05T13:04:17.098Z,13.51
2019-03-05T13:06:47.202Z,13.51
2019-03-05T13:09:19.578Z,13.81
2019-03-05T13:11:52.630Z,13.72
2019-03-05T13:14:26.835Z,14.77
2019-03-05T13:16:57.789Z,16.14
2019-03-05T13:19:27.788Z,16.02
2019-03-05T13:21:58.129Z,15.81
2019-03-05T13:24:28.584Z,15.63
2019-03-05T13:26:59.338Z,15.55
2019-03-05T13:29:29.066Z,15.18
2019-03-05T13:32:00.443Z,13.89
2019-03-05T13:34:30.182Z,13.84
2019-03-05T13:37:00.880Z,13.83
2019-03-05T13:39:30.880Z,13.39
2019-03-05T13:42:00.594Z,13.05
2019-03-05T13:44:32.067Z,12.86
2019-03-05T13:47:04.675Z,12.87
2019-03-05T13:49:45.731Z,12.83
2019-03-05T13:52:27.845Z,12.81
2019-03-05T13:55:26.866Z,12.77
2019-03-05T13:58:02.372Z,12.75
2019-03-05T14:00:32.208Z,12.82
2019-03-05T14:03:07.670Z,13.14
2019-03-05T14:05:55.699Z,13.56
2019-03-05T14:08:40.350Z,13.72
2019-03-05T14:11:10.434Z,13.82
2019-03-05T14:13:40.169Z,13.68
2019-03-05T14:16:11.415Z,13.32
2019-03-05T14:18:41.127Z,12.96
2019-03-05T14:21:10.859Z,12.67
2019-03-05T14:23:40.585Z,12.41
2019-03-05T14:26:10.447Z,12.31
2019-03-05T14:28:40.157Z,12.27
2019-03-05T14:31:10.107Z,12.22
2019-03-05T14:33:39.734Z,12.17
2019-03-05T14:36:09.491Z,12.20
2019-03-05T14:38:39.332Z,12.17
2019-03-05T14:41:09.132Z,12.08
2019-03-05T14:43:38.861Z,12.08
2019-03-05T14:46:08.563Z,12.11
2019-03-05T14:48:38.318Z,12.03
2019-03-05T14:51:09.451Z,11.96
2019-03-05T14:53:39.234Z,11.87
2019-03-05T14:56:09.167Z,11.80
2019-03-05T14:58:40.526Z,11.70
2019-03-05T15:01:10.329Z,11.64
2019-03-05T15:03:39.873Z,11.61
2019-03-05T15:06:11.305Z,11.55
2019-03-05T15:08:41.785Z,11.55
2019-03-05T15:11:11.764Z,11.50
2019-03-05T15:13:42.712Z,11.56
2019-03-05T15:16:13.904Z,11.56
2019-03-05T15:18:44.842Z,11.64
2019-03-05T15:21:14.639Z,11.74
2019-03-05T15:23:44.236Z,11.93
2019-03-05T15:26:13.986Z,12.01
2019-03-05T15:28:55.481Z,12.04
2019-03-05T15:31:15.078Z,12.02
2019-03-05T15:33:44.821Z,12.03
2019-03-05T15:36:23.704Z,11.94
2019-03-05T15:38:47.041Z,11.92
2019-03-05T15:41:17.910Z,11.97
2019-03-05T15:43:47.597Z,11.95
2019-03-05T15:46:17.257Z,11.94
2019-03-05T15:48:47.217Z,11.92
2019-03-05T15:51:17.127Z,11.91
2019-03-05T15:56:16.763Z,11.86
2019-03-05T15:58:46.606Z,11.85
2019-03-05T16:01:22.154Z,11.86
2019-03-05T16:03:47.606Z,11.88
2019-03-05T16:06:17.319Z,11.87
2019-03-05T16:08:47.465Z,11.89
2019-03-05T16:11:17.288Z,11.85
2019-03-05T16:13:47.018Z,11.80
2019-03-05T16:16:18.429Z,11.77
2019-03-05T16:18:49.155Z,11.73
2019-03-05T16:21:23.803Z,11.66
2019-03-05T16:23:53.408Z,11.62
2019-03-05T16:26:24.672Z,11.71
2019-03-05T16:28:54.619Z,11.63
2019-03-05T16:31:26.297Z,11.55
2019-03-05T16:33:58.777Z,11.51
2019-03-05T16:36:42.207Z,11.43
2019-03-05T16:39:19.506Z,11.40
2019-03-05T16:41:57.414Z,11.22
2019-03-05T16:44:45.974Z,11.05
2019-03-05T16:47:23.678Z,10.77
2019-03-05T16:50:00.877Z,10.44
2019-03-05T16:52:32.137Z,10.29
2019-03-05T16:55:03.501Z,10.16
2019-03-05T16:57:48.153Z,9.94
2019-03-05T17:00:36.103Z,9.69
2019-03-05T17:03:14.253Z,9.43
2019-03-05T17:05:45.690Z,9.28
2019-03-05T17:08:26.049Z,9.23
2019-03-05T17:10:59.724Z,9.08
2019-03-05T17:13:32.186Z,8.96
2019-03-05T17:16:01.990Z,8.90
2019-03-05T17:18:31.616Z,8.81
2019-03-05T17:21:02.045Z,8.76
2019-03-05T17:23:33.749Z,8.64
2019-03-05T17:26:04.896Z,8.58
2019-03-05T17:28:34.838Z,8.52
2019-03-05T17:31:04.671Z,8.44
2019-03-05T17:33:34.736Z,8.40
2019-03-05T17:36:05.932Z,8.29
2019-03-05T17:38:36.426Z,8.18
2019-03-05T17:41:06.257Z,8.12
2019-03-05T17:43:36.085Z,8.11
2019-03-05T17:46:05.818Z,8.08
2019-03-05T17:48:36.930Z,8.01
2019-03-05T17:51:06.912Z,7.91
2019-03-05T17:53:36.947Z,7.89
2019-03-05T17:56:06.677Z,7.92
2019-03-05T17:58:36.534Z,7.81
2019-03-05T18:01:07.861Z,7.84
2019-03-05T18:03:37.781Z,7.88
2019-03-05T18:06:07.540Z,7.84
2019-03-05T18:08:37.276Z,7.74
2019-03-05T18:11:07.001Z,7.72
2019-03-05T18:13:38.070Z,7.68
2019-03-05T18:16:07.994Z,7.67
2019-03-05T18:18:37.733Z,7.75
2019-03-05T18:21:07.348Z,7.87
2019-03-05T18:23:37.371Z,7.82
2019-03-05T18:26:07.222Z,7.84
2019-03-05T18:28:38.636Z,7.81
2019-03-05T18:31:08.538Z,7.74
2019-03-05T18:33:38.369Z,7.64
2019-03-05T18:36:08.395Z,7.52
2019-03-05T18:38:38.545Z,7.40
2019-03-05T18:41:08.200Z,7.28
2019-03-05T18:43:37.872Z,7.20
2019-03-05T18:46:07.787Z,7.14
2019-03-05T18:48:39.090Z,7.03
2019-03-05T18:51:08.830Z,6.95
2019-03-05T18:53:38.819Z,6.90
2019-03-05T18:56:09.901Z,6.91
2019-03-05T18:58:39.557Z,6.96
2019-03-05T19:01:10.397Z,6.87
2019-03-05T19:03:40.126Z,6.75
2019-03-05T19:06:09.795Z,6.73
2019-03-05T19:08:40.517Z,6.63
2019-03-05T19:11:10.245Z,6.67
2019-03-05T19:13:39.965Z,6.72
2019-03-05T19:16:09.800Z,6.63
2019-03-05T19:18:39.439Z,6.52
2019-03-05T19:21:09.367Z,6.50
2019-03-05T19:23:39.626Z,6.43
2019-03-05T19:26:09.751Z,6.25
2019-03-05T19:28:40.681Z,6.22
2019-03-05T19:31:10.697Z,6.09
2019-03-05T19:33:43.664Z,6.05
2019-03-05T19:36:12.872Z,6.01
2019-03-05T19:38:42.588Z,5.94
2019-03-05T19:41:13.340Z,5.92
2019-03-05T19:43:43.079Z,5.94
2019-03-05T19:46:13.106Z,5.98
2019-03-05T19:48:44.269Z,6.00
2019-03-05T19:51:13.907Z,6.08
2019-03-05T19:53:45.312Z,6.16
2019-03-05T19:56:16.638Z,6.20
2019-03-05T19:58:46.514Z,6.20
2019-03-05T20:01:18.140Z,6.22
2019-03-05T20:03:48.083Z,6.29
2019-03-05T20:06:17.601Z,6.36
2019-03-05T20:08:47.437Z,6.38
2019-03-05T20:11:17.260Z,6.47
2019-03-05T20:13:48.221Z,6.50
2019-03-05T20:16:17.974Z,6.48
2019-03-05T20:18:50.388Z,6.46
2019-03-05T20:21:20.522Z,6.49
2019-03-05T20:23:51.168Z,6.49
2019-03-05T20:26:23.040Z,6.56
2019-03-05T20:29:01.939Z,6.55
2019-03-05T20:31:32.499Z,6.55
2019-03-05T20:34:04.267Z,6.53
2019-03-05T20:36:36.009Z,6.50
2019-03-05T20:39:07.663Z,6.41
2019-03-05T20:41:40.372Z,6.35
2019-03-05T20:44:10.254Z,6.28
2019-03-05T20:46:40.384Z,6.19
2019-03-05T20:49:11.654Z,6.15
2019-03-05T20:51:42.164Z,6.12
2019-03-05T20:54:15.667Z,6.08
2019-03-05T20:56:48.656Z,6.03
2019-03-05T20:59:20.472Z,5.93
2019-03-05T21:01:53.846Z,5.90
2019-03-05T21:04:28.911Z,5.97
2019-03-05T21:06:58.906Z,5.97
2019-03-05T21:09:29.795Z,5.93
2019-03-05T21:12:00.390Z,5.85
2019-03-05T21:14:30.108Z,5.74
2019-03-05T21:16:59.863Z,5.59
2019-03-05T21:19:29.489Z,5.51
2019-03-05T21:21:59.270Z,5.36
2019-03-05T21:24:29.054Z,5.25
2019-03-05T21:26:58.773Z,5.15
2019-03-05T21:29:28.401Z,5.06
2019-03-05T21:31:59.055Z,4.96
2019-03-05T21:34:28.793Z,5.05
2019-03-05T21:36:58.511Z,5.10
2019-03-05T21:39:28.254Z,5.07
2019-03-05T21:41:57.874Z,5.12
2019-03-05T21:44:27.699Z,5.12
2019-03-05T21:46:58.453Z,5.22
2019-03-05T21:49:28.185Z,5.21
2019-03-05T21:51:57.807Z,5.19
2019-03-05T21:54:27.450Z,5.10
2019-03-05T21:56:57.171Z,5.02
2019-03-05T21:59:27.923Z,4.96
2019-03-05T22:01:57.763Z,4.98
2019-03-05T22:04:27.598Z,4.96
2019-03-05T22:06:58.757Z,4.90
2019-03-05T22:09:28.582Z,4.86
2019-03-05T22:11:58.425Z,4.86
2019-03-05T22:14:28.246Z,4.87
2019-03-05T22:16:57.988Z,4.77
2019-03-05T22:19:27.759Z,4.72
2019-03-05T22:21:57.335Z,4.65
2019-03-05T22:24:27.066Z,4.61
2019-03-05T22:26:56.908Z,4.56
2019-03-05T22:29:26.420Z,4.53
2019-03-05T22:31:55.939Z,4.50
2019-03-05T22:34:25.487Z,4.47
2019-03-05T22:36:55.124Z,4.42
2019-03-05T22:39:24.730Z,4.36
2019-03-05T22:41:54.357Z,4.35
2019-03-05T22:44:24.192Z,4.41
2019-03-05T22:46:53.825Z,4.45
2019-03-05T22:49:23.347Z,4.46
2019-03-05T22:51:52.976Z,4.57
2019-03-05T22:54:22.807Z,4.61
2019-03-05T22:56:55.263Z,4.62
2019-03-05T22:59:24.923Z,4.63
2019-03-05T23:01:54.358Z,4.66
2019-03-05T23:04:29.392Z,4.70
2019-03-05T23:06:59.331Z,4.79
2019-03-05T23:09:29.484Z,4.87
2019-03-05T23:12:00.738Z,4.88
2019-03-05T23:14:30.669Z,4.81
2019-03-05T23:17:00.201Z,4.72
2019-03-05T23:19:29.828Z,4.79
2019-03-05T23:21:59.553Z,4.74
2019-03-05T23:24:29.284Z,4.81
2019-03-05T23:26:59.958Z,4.76
2019-03-05T23:29:31.299Z,4.80
2019-03-05T23:32:01.030Z,4.70
2019-03-05T23:34:31.528Z,4.70
2019-03-05T23:37:01.547Z,4.69
2019-03-05T23:39:31.344Z,4.66
2019-03-05T23:42:00.985Z,4.62
2019-03-05T23:44:30.709Z,4.60
2019-03-05T23:47:00.541Z,4.53
2019-03-05T23:49:30.371Z,4.47
2019-03-05T23:51:59.904Z,4.46
2019-03-05T23:54:29.626Z,4.47
2019-03-05T23:56:59.352Z,4.40
2019-03-05T23:59:28.980Z,4.38
